Time;durP1;ratioP1;P1;durP2;ratioP2;P2;SDS_P1;SDS_P2;PMS_P1;PMS_P2;Temp;Humidity;BMP_temperature;BMP_pressure;BME280_temperature;BME280_humidity;BME280_pressure;Samples;Min_cycle;Max_cycle;Signal;HPM_P1;HPM_P2
2022/04/22 00:01:20;;;;;;;;;;;23.00;34.20;;;;;;1580325;74;683;-55
2022/04/22 00:03:22;;;;;;;;;;;23.00;34.20;;;;;;1583684;74;660;-56
2022/04/22 00:05:24;;;;;;;;;;;23.10;34.20;;;;;;1581112;74;1007;-57
2022/04/22 00:07:28;;;;;;;;;;;23.10;34.10;;;;;;1582989;74;656;-58
2022/04/22 00:09:30;;;;;;;;;;;23.20;33.90;;;;;;1585084;74;1095;-53
2022/04/22 00:11:32;;;;;;;;;;;23.20;33.80;;;;;;1590715;74;664;-56
2022/04/22 00:13:34;;;;;;;;;;;23.20;33.70;;;;;;1580843;74;654;-54
2022/04/22 00:15:35;;;;;;;;;;;23.30;33.60;;;;;;1568642;74;1928;-54
2022/04/22 00:17:37;;;;;;;;;;;23.30;33.50;;;;;;1564294;75;655;-55
2022/04/22 00:19:39;;;;;;;;;;;23.40;33.50;;;;;;1560246;75;1182;-56
2022/04/22 00:21:42;;;;;;;;;;;23.40;33.50;;;;;;1563920;75;810;-58
2022/04/22 00:23:44;;;;;;;;;;;23.40;33.40;;;;;;1564708;75;790;-57
2022/04/22 00:25:45;;;;;;;;;;;23.40;33.40;;;;;;1561157;75;794;-56
2022/04/22 00:27:47;;;;;;;;;;;23.50;33.50;;;;;;1566239;75;674;-56
2022/04/22 00:29:49;;;;;;;;;;;23.40;33.40;;;;;;1565944;74;1619;-57
2022/04/22 00:31:51;;;;;;;;;;;23.50;33.40;;;;;;1562406;75;718;-54
2022/04/22 00:33:53;;;;;;;;;;;23.50;33.40;;;;;;1569421;75;1923;-54
2022/04/22 00:35:55;;;;;;;;;;;23.50;33.40;;;;;;1563539;75;671;-58
2022/04/22 00:37:58;;;;;;;;;;;23.50;33.50;;;;;;1561799;75;657;-56
2022/04/22 00:40:00;;;;;;;;;;;23.60;33.40;;;;;;1571085;75;1183;-56
2022/04/22 00:42:09;;;;;;;;;;;23.60;33.40;;;;;;1562770;75;591;-55
2022/04/22 00:44:11;;;;;;;;;;;23.60;33.40;;;;;;1572299;75;1003;-57
2022/04/22 00:46:13;;;;;;;;;;;23.50;33.40;;;;;;1570652;75;679;-56
2022/04/22 00:48:16;;;;;;;;;;;23.60;33.40;;;;;;1551392;75;1493;-57
2022/04/22 00:50:18;;;;;;;;;;;23.60;33.40;;;;;;1571277;75;1675;-54
2022/04/22 00:52:20;;;;;;;;;;;23.60;33.30;;;;;;1560397;75;659;-57
2022/04/22 00:54:22;;;;;;;;;;;23.60;33.40;;;;;;1558967;75;1929;-56
2022/04/22 00:56:24;;;;;;;;;;;23.60;33.50;;;;;;1551038;75;632;-57
2022/04/22 00:58:26;;;;;;;;;;;23.60;33.50;;;;;;1560047;75;667;-57
2022/04/22 01:00:28;;;;;;;;;;;23.60;33.70;;;;;;1558961;75;1142;-58
2022/04/22 01:02:30;;;;;;;;;;;23.50;33.70;;;;;;1576404;75;704;-54
2022/04/22 01:11:35;;;;;;;;;;;23.40;33.70;;;;;;1557452;75;1673;-58
2022/04/22 01:13:37;;;;;;;;;;;23.40;33.70;;;;;;1511518;75;3168;-61
2022/04/22 01:15:39;;;;;;;;;;;23.50;33.70;;;;;;1498294;77;1953;-58
2022/04/22 01:17:41;;;;;;;;;;;23.60;33.80;;;;;;1479657;77;745;-59
2022/04/22 01:19:43;;;;;;;;;;;23.50;33.80;;;;;;1498347;78;1183;-59
2022/04/22 01:21:44;;;;;;;;;;;23.60;33.80;;;;;;1490033;77;816;-58
2022/04/22 01:23:46;;;;;;;;;;;23.50;33.80;;;;;;1468191;78;758;-59
2022/04/22 01:25:48;;;;;;;;;;;23.50;33.80;;;;;;1476825;78;1655;-61
2022/04/22 01:27:51;;;;;;;;;;;23.60;33.80;;;;;;1488566;78;766;-59
2022/04/22 01:29:52;;;;;;;;;;;23.60;33.90;;;;;;1473710;77;1085;-59
2022/04/22 01:31:54;;;;;;;;;;;23.50;33.90;;;;;;1483055;78;685;-61
2022/04/22 01:33:56;;;;;;;;;;;23.60;33.80;;;;;;1496247;78;751;-62
2022/04/22 01:35:58;;;;;;;;;;;23.70;33.90;;;;;;1483006;77;1954;-61
2022/04/22 01:38:00;;;;;;;;;;;23.60;33.70;;;;;;1474147;78;698;-59
2022/04/22 01:40:02;;;;;;;;;;;23.60;33.80;;;;;;1482308;78;1710;-61
2022/04/22 01:42:06;;;;;;;;;;;23.60;33.70;;;;;;1497506;77;687;-58
2022/04/22 01:44:08;;;;;;;;;;;23.60;33.80;;;;;;1490233;78;748;-59
2022/04/22 01:46:10;;;;;;;;;;;23.60;33.80;;;;;;1487836;78;691;-59
2022/04/22 01:48:12;;;;;;;;;;;23.60;33.90;;;;;;1489133;78;674;-61
2022/04/22 01:50:14;;;;;;;;;;;23.60;33.80;;;;;;1489079;77;1140;-60
2022/04/22 01:52:16;;;;;;;;;;;23.60;33.80;;;;;;1496366;77;705;-58
2022/04/22 01:54:17;;;;;;;;;;;23.60;34.00;;;;;;1478005;77;1962;-60
2022/04/22 01:56:20;;;;;;;;;;;23.60;34.00;;;;;;1485646;78;615;-59
2022/04/22 01:58:21;;;;;;;;;;;23.50;34.10;;;;;;1489032;78;682;-58
2022/04/22 02:00:23;;;;;;;;;;;23.50;34.10;;;;;;1498059;78;1066;-57
2022/04/22 02:02:25;;;;;;;;;;;23.50;34.10;;;;;;1497937;78;757;-61
2022/04/22 02:04:27;;;;;;;;;;;23.40;34.00;;;;;;1485753;78;680;-59
2022/04/22 02:06:29;;;;;;;;;;;23.50;34.20;;;;;;1505340;78;1556;-58
2022/04/22 02:08:31;;;;;;;;;;;23.50;34.30;;;;;;1484415;78;656;-60
2022/04/22 02:10:33;;;;;;;;;;;23.50;34.30;;;;;;1491493;78;1227;-59
2022/04/22 02:12:35;;;;;;;;;;;23.50;34.20;;;;;;1491938;78;819;-59
2022/04/22 02:14:37;;;;;;;;;;;23.50;34.20;;;;;;1486803;78;1936;-60
2022/04/22 02:16:38;;;;;;;;;;;23.50;34.30;;;;;;1488855;78;710;-59
2022/04/22 02:18:42;;;;;;;;;;;23.50;34.40;;;;;;1501475;77;713;-60
2022/04/22 02:20:44;;;;;;;;;;;23.50;34.40;;;;;;1491824;77;1490;-59
2022/04/22 02:22:46;;;;;;;;;;;23.50;34.30;;;;;;1484020;78;778;-58
2022/04/22 02:24:48;;;;;;;;;;;23.50;34.40;;;;;;1488660;78;648;-58
2022/04/22 02:29:10;;;;;;;;;;;23.50;34.60;;;;;;1477126;78;1673;-60
2022/04/22 02:31:12;;;;;;;;;;;23.30;34.80;;;;;;1487364;78;656;-60
2022/04/22 02:33:14;;;;;;;;;;;23.30;35.10;;;;;;1473278;78;662;-59
2022/04/22 02:35:16;;;;;;;;;;;23.20;35.20;;;;;;1481677;78;1965;-58
2022/04/22 02:37:18;;;;;;;;;;;23.00;35.50;;;;;;1481323;77;804;-58
2022/04/22 02:39:20;;;;;;;;;;;23.00;35.90;;;;;;1475039;78;1174;-59
2022/04/22 02:46:01;;;;;;;;;;;22.90;36.60;;;;;;1489781;78;764;-59
2022/04/22 02:48:03;;;;;;;;;;;22.90;36.80;;;;;;1469644;78;813;-61
2022/04/22 02:50:06;;;;;;;;;;;22.80;36.90;;;;;;1484249;78;1661;-61
2022/04/22 02:52:08;;;;;;;;;;;22.80;36.90;;;;;;1479014;78;672;-59
2022/04/22 02:54:10;;;;;;;;;;;22.80;37.00;;;;;;1485105;78;580;-58
2022/04/22 02:56:12;;;;;;;;;;;22.90;37.20;;;;;;1479980;80;1949;-59
2022/04/22 02:58:14;;;;;;;;;;;22.80;37.00;;;;;;1487336;77;656;-58
2022/04/22 03:00:16;;;;;;;;;;;22.90;37.10;;;;;;1489036;77;1077;-59
2022/04/22 03:02:17;;;;;;;;;;;23.00;37.20;;;;;;1485956;78;761;-59
2022/04/22 03:04:19;;;;;;;;;;;22.90;37.10;;;;;;1478307;77;1652;-60
2022/04/22 03:06:24;;;;;;;;;;;22.90;37.10;;;;;;1477724;78;851;-61
2022/04/22 03:08:25;;;;;;;;;;;23.00;37.00;;;;;;1478589;78;1901;-58
2022/04/22 03:10:27;;;;;;;;;;;22.90;37.10;;;;;;1482293;78;1125;-58
2022/04/22 03:12:29;;;;;;;;;;;23.00;37.00;;;;;;1476614;78;641;-61
2022/04/22 03:14:31;;;;;;;;;;;23.00;37.00;;;;;;1474286;78;782;-60
2022/04/22 03:16:33;;;;;;;;;;;23.00;37.00;;;;;;1478506;78;1946;-58
2022/04/22 03:18:35;;;;;;;;;;;23.00;36.90;;;;;;1446268;80;1510;-60
2022/04/22 03:20:37;;;;;;;;;;;23.00;36.90;;;;;;1504417;77;1096;-61
2022/04/22 03:22:38;;;;;;;;;;;23.10;37.60;;;;;;1493486;79;704;-59
2022/04/22 03:24:40;;;;;;;;;;;23.10;37.70;;;;;;1482981;79;750;-61
2022/04/22 03:26:42;;;;;;;;;;;23.10;37.70;;;;;;1489371;77;703;-59
2022/04/22 03:28:44;;;;;;;;;;;23.10;37.60;;;;;;1481249;79;1133;-59
2022/04/22 03:30:46;;;;;;;;;;;23.10;37.60;;;;;;1494699;79;1569;-59
2022/04/22 03:32:48;;;;;;;;;;;23.10;37.60;;;;;;1494480;77;757;-60
2022/04/22 03:34:50;;;;;;;;;;;23.10;37.60;;;;;;1495066;77;1953;-61
2022/04/22 03:36:52;;;;;;;;;;;23.10;37.60;;;;;;1492110;78;768;-61
2022/04/22 03:38:54;;;;;;;;;;;23.10;37.60;;;;;;1489232;78;1157;-59
2022/04/22 03:40:56;;;;;;;;;;;23.10;37.60;;;;;;1489776;77;749;-59
2022/04/22 03:42:58;;;;;;;;;;;23.20;37.50;;;;;;1486533;77;704;-59
2022/04/22 03:44:59;;;;;;;;;;;23.10;37.70;;;;;;1490393;78;1555;-60
2022/04/22 03:47:03;;;;;;;;;;;23.20;37.70;;;;;;1482373;77;676;-58
2022/04/22 03:49:06;;;;;;;;;;;23.10;37.40;;;;;;1497857;77;2010;-62
2022/04/22 03:51:08;;;;;;;;;;;23.20;37.50;;;;;;1487095;77;835;-59
2022/04/22 03:53:12;;;;;;;;;;;23.20;37.30;;;;;;1495033;79;698;-61
2022/04/22 03:55:14;;;;;;;;;;;23.20;37.40;;;;;;1483712;79;1924;-59
2022/04/22 03:59:36;;;;;;;;;;;23.20;37.30;;;;;;1483200;77;1436;-58
2022/04/22 04:01:38;;;;;;;;;;;23.20;37.20;;;;;;1484935;77;695;-61
2022/04/22 04:03:40;;;;;;;;;;;23.20;37.30;;;;;;1484695;77;685;-61
2022/04/22 04:05:49;;;;;;;;;;;23.20;37.10;;;;;;1484633;77;859;-60
2022/04/22 04:07:46;;;;;;;;;;;23.20;37.30;;;;;;1489090;77;1614;-61
2022/04/22 04:16:49;;;;;;;;;;;23.20;37.30;;;;;;1460353;77;1910;-60
2022/04/22 04:18:51;;;;;;;;;;;23.20;37.30;;;;;;1521045;77;1101;-58
2022/04/22 04:23:16;;;;;;;;;;;23.20;37.20;;;;;;1499453;78;1593;-58
2022/04/22 04:25:17;;;;;;;;;;;23.20;37.10;;;;;;1495074;78;684;-59
2022/04/22 04:27:19;;;;;;;;;;;23.20;37.20;;;;;;1517644;77;1537;-58
2022/04/22 04:29:21;;;;;;;;;;;23.20;37.20;;;;;;1472061;78;1133;-61
2022/04/22 04:31:23;;;;;;;;;;;23.20;37.10;;;;;;1497410;77;652;-60
2022/04/22 04:33:25;;;;;;;;;;;23.20;37.20;;;;;;1490478;77;676;-58
2022/04/22 04:35:27;;;;;;;;;;;23.20;37.10;;;;;;1490199;77;1941;-58
2022/04/22 04:37:29;;;;;;;;;;;23.20;37.20;;;;;;1489073;77;678;-59
2022/04/22 04:39:31;;;;;;;;;;;23.20;37.30;;;;;;1485941;77;1145;-60
2022/04/22 04:41:32;;;;;;;;;;;23.20;37.20;;;;;;1487643;77;1543;-59
2022/04/22 04:43:35;;;;;;;;;;;23.30;37.30;;;;;;1491565;77;695;-61
2022/04/22 04:45:37;;;;;;;;;;;23.20;37.10;;;;;;1487808;77;738;-60
2022/04/22 04:47:40;;;;;;;;;;;23.20;37.10;;;;;;1486487;77;690;-59
2022/04/22 04:49:42;;;;;;;;;;;23.20;37.10;;;;;;1480543;77;1168;-60
2022/04/22 04:51:44;;;;;;;;;;;23.10;37.10;;;;;;1492802;77;779;-59
2022/04/22 04:53:46;;;;;;;;;;;23.20;37.10;;;;;;1494931;77;673;-60
2022/04/22 04:55:48;;;;;;;;;;;23.20;37.10;;;;;;1493221;77;1946;-60
2022/04/22 04:57:50;;;;;;;;;;;23.20;37.00;;;;;;1489775;77;688;-59
2022/04/22 04:59:52;;;;;;;;;;;23.20;37.00;;;;;;1501419;77;1151;-61
2022/04/22 05:01:54;;;;;;;;;;;23.20;37.00;;;;;;1499542;77;687;-59
2022/04/22 05:03:55;;;;;;;;;;;23.20;37.10;;;;;;1495884;77;685;-59
2022/04/22 05:05:57;;;;;;;;;;;23.20;37.00;;;;;;1495315;77;755;-60
2022/04/22 05:08:00;;;;;;;;;;;23.20;37.00;;;;;;1486612;77;739;-59
2022/04/22 05:10:02;;;;;;;;;;;23.20;37.00;;;;;;1488784;77;1328;-61
2022/04/22 05:12:04;;;;;;;;;;;23.20;37.10;;;;;;1483965;77;792;-61
2022/04/22 05:14:07;;;;;;;;;;;23.30;37.20;;;;;;1485680;77;718;-59
2022/04/22 05:16:08;;;;;;;;;;;23.30;37.30;;;;;;1486678;77;1916;-59
2022/04/22 05:18:10;;;;;;;;;;;23.30;37.30;;;;;;1484947;77;765;-58
2022/04/22 05:20:13;;;;;;;;;;;23.20;37.20;;;;;;1491486;77;1145;-57
2022/04/22 05:22:15;;;;;;;;;;;23.20;37.30;;;;;;1484666;77;751;-60
2022/04/22 05:24:16;;;;;;;;;;;23.30;37.30;;;;;;1488916;77;1387;-56
2022/04/22 05:26:18;;;;;;;;;;;23.20;37.30;;;;;;1489228;77;727;-57
2022/04/22 05:28:20;;;;;;;;;;;23.30;37.40;;;;;;1497206;79;707;-59
2022/04/22 05:32:47;;;;;;;;;;;23.30;37.40;;;;;;1480546;77;1622;-56
2022/04/22 05:34:46;;;;;;;;;;;23.20;37.40;;;;;;1485494;77;1434;-56
2022/04/22 05:36:47;;;;;;;;;;;23.20;37.30;;;;;;1485171;77;1947;-54
2022/04/22 05:38:52;;;;;;;;;;;23.20;37.40;;;;;;1488117;77;1507;-58
2022/04/22 05:40:53;;;;;;;;;;;23.30;37.50;;;;;;1487388;78;1610;-55
2022/04/22 05:42:55;;;;;;;;;;;23.30;37.60;;;;;;1489552;77;706;-56
2022/04/22 05:44:57;;;;;;;;;;;23.30;37.50;;;;;;1489611;77;726;-56
2022/04/22 05:46:59;;;;;;;;;;;23.30;37.50;;;;;;1484516;77;681;-58
2022/04/22 05:49:01;;;;;;;;;;;23.30;37.50;;;;;;1486392;77;1137;-58
2022/04/22 05:51:02;;;;;;;;;;;23.30;37.40;;;;;;1493532;79;832;-55
2022/04/22 05:53:04;;;;;;;;;;;23.30;37.50;;;;;;1496874;77;1480;-55
2022/04/22 05:55:08;;;;;;;;;;;23.30;37.50;;;;;;1495137;77;796;-58
2022/04/22 05:57:10;;;;;;;;;;;23.40;37.40;;;;;;1493172;77;1941;-56
2022/04/22 05:59:11;;;;;;;;;;;23.30;37.40;;;;;;1490878;77;1143;-57
2022/04/22 06:01:15;;;;;;;;;;;23.30;37.50;;;;;;1486427;77;742;-55
2022/04/22 06:03:17;;;;;;;;;;;23.30;37.40;;;;;;1490910;77;772;-56
2022/04/22 06:05:20;;;;;;;;;;;23.30;37.30;;;;;;1488234;77;676;-55
2022/04/22 06:07:22;;;;;;;;;;;23.30;37.30;;;;;;1486683;77;1524;-57
2022/04/22 06:11:43;;;;;;;;;;;23.30;37.30;;;;;;1474847;79;1645;-61
2022/04/22 06:13:47;;;;;;;;;;;23.30;37.40;;;;;;1502157;77;665;-60
2022/04/22 06:15:48;;;;;;;;;;;23.30;37.60;;;;;;1483460;78;1922;-59
2022/04/22 06:17:51;;;;;;;;;;;23.30;37.40;;;;;;1480804;78;711;-56
2022/04/22 06:19:53;;;;;;;;;;;23.40;37.40;;;;;;1482225;77;1593;-56
2022/04/22 06:21:55;;;;;;;;;;;23.30;37.30;;;;;;1491841;78;673;-58
2022/04/22 06:23:57;;;;;;;;;;;23.40;37.60;;;;;;1484277;78;789;-57
2022/04/22 06:25:59;;;;;;;;;;;23.40;37.60;;;;;;1486016;78;716;-57
2022/04/22 06:28:01;;;;;;;;;;;23.40;37.50;;;;;;1486575;78;723;-58
2022/04/22 06:30:04;;;;;;;;;;;23.40;37.50;;;;;;1480522;78;1078;-56
2022/04/22 06:32:07;;;;;;;;;;;23.40;37.60;;;;;;1499762;77;722;-59
2022/04/22 06:34:09;;;;;;;;;;;23.40;37.60;;;;;;1506252;77;1543;-60
2022/04/22 06:36:15;;;;;;;;;;;23.40;37.50;;;;;;1506268;77;1940;-57
2022/04/22 06:38:16;;;;;;;;;;;23.40;37.50;;;;;;1483048;77;1221;-57
2022/04/22 06:47:18;;;;;;;;;;;23.50;37.80;;;;;;1480947;77;1055;-56
2022/04/22 06:49:20;;;;;;;;;;;23.40;37.60;;;;;;1491216;77;1691;-60
2022/04/22 06:51:23;;;;;;;;;;;23.40;37.50;;;;;;1488326;77;681;-57
2022/04/22 06:53:25;;;;;;;;;;;23.50;37.60;;;;;;1486094;77;727;-56
2022/04/22 06:55:27;;;;;;;;;;;23.50;37.60;;;;;;1480265;77;749;-61
2022/04/22 06:57:29;;;;;;;;;;;23.50;37.70;;;;;;1486536;77;1930;-60
2022/04/22 06:59:31;;;;;;;;;;;23.50;37.90;;;;;;1484130;77;1121;-60
2022/04/22 07:01:33;;;;;;;;;;;23.50;37.90;;;;;;1482691;77;765;-59
2022/04/22 07:03:35;;;;;;;;;;;23.60;37.80;;;;;;1488058;77;1490;-58
2022/04/22 07:05:38;;;;;;;;;;;23.50;37.80;;;;;;1483170;77;778;-58
2022/04/22 07:07:40;;;;;;;;;;;23.50;37.80;;;;;;1491545;77;698;-58
2022/04/22 07:09:42;;;;;;;;;;;23.60;37.70;;;;;;1486443;77;1113;-61
2022/04/22 07:11:44;;;;;;;;;;;23.50;37.70;;;;;;1486384;77;648;-59
2022/04/22 07:13:46;;;;;;;;;;;23.50;37.70;;;;;;1515016;73;226891;-66
2022/04/22 07:15:48;;;;;;;;;;;23.60;37.70;;;;;;1547683;75;1462;-66
2022/04/22 07:17:50;;;;;;;;;;;23.50;37.60;;;;;;1542803;75;1925;-66
2022/04/22 07:19:52;;;;;;;;;;;23.60;37.60;;;;;;1543128;76;731;-66
2022/04/22 07:21:54;;;;;;;;;;;23.60;37.40;;;;;;1544176;76;670;-69
2022/04/22 07:23:59;;;;;;;;;;;23.50;37.30;;;;;;1542670;76;1205;-65
2022/04/22 07:26:00;;;;;;;;;;;23.60;37.20;;;;;;1539939;77;1314;-65
2022/04/22 07:28:04;;;;;;;;;;;23.50;37.20;;;;;;1536445;77;764;-65
2022/04/22 07:30:07;;;;;;;;;;;23.60;37.10;;;;;;1542936;75;1520;-67
2022/04/22 07:32:09;;;;;;;;;;;23.50;37.10;;;;;;1533729;76;714;-66
2022/04/22 07:34:11;;;;;;;;;;;23.50;37.10;;;;;;1537089;76;1165;-66
2022/04/22 07:36:13;;;;;;;;;;;23.50;37.10;;;;;;1538905;77;1935;-68
2022/04/22 07:38:15;;;;;;;;;;;23.50;37.10;;;;;;1541559;77;667;-68
2022/04/22 07:40:21;;;;;;;;;;;23.60;37.10;;;;;;1535909;77;685;-65
2022/04/22 07:42:23;;;;;;;;;;;23.50;37.10;;;;;;1541568;77;682;-66
2022/04/22 07:46:48;;;;;;;;;;;23.50;37.10;;;;;;1538839;76;1649;-67
2022/04/22 07:48:50;;;;;;;;;;;23.50;37.10;;;;;;1541077;77;915;-64
2022/04/22 07:50:54;;;;;;;;;;;23.50;37.10;;;;;;1535851;77;690;-66
2022/04/22 07:52:56;;;;;;;;;;;23.50;37.10;;;;;;1538323;76;1397;-67
2022/04/22 07:54:58;;;;;;;;;;;23.40;36.90;;;;;;1537585;77;649;-63
2022/04/22 07:57:01;;;;;;;;;;;23.50;37.10;;;;;;1537077;77;1943;-68
2022/04/22 07:59:03;;;;;;;;;;;23.50;37.10;;;;;;1542512;75;1345;-66
2022/04/22 08:01:04;;;;;;;;;;;23.50;37.00;;;;;;1535156;75;725;-67
2022/04/22 08:03:07;;;;;;;;;;;23.60;37.10;;;;;;1531472;77;1200;-66
2022/04/22 08:05:10;;;;;;;;;;;23.60;37.10;;;;;;1539669;77;722;-66
2022/04/22 08:07:12;;;;;;;;;;;23.50;37.10;;;;;;1539084;77;759;-65
2022/04/22 08:09:14;;;;;;;;;;;23.50;37.00;;;;;;1545003;76;690;-68
2022/04/22 08:11:16;;;;;;;;;;;23.50;37.10;;;;;;1540274;75;662;-68
2022/04/22 08:13:18;;;;;;;;;;;23.50;37.10;;;;;;1543634;75;1423;-65
2022/04/22 08:15:21;;;;;;;;;;;23.50;37.10;;;;;;1533095;75;665;-66
2022/04/22 08:17:23;;;;;;;;;;;23.40;36.90;;;;;;1537722;77;1909;-68
2022/04/22 08:19:25;;;;;;;;;;;23.50;37.10;;;;;;1540738;75;806;-67
2022/04/22 08:21:32;;;;;;;;;;;23.40;36.90;;;;;;1541179;75;693;-68
2022/04/22 08:23:30;;;;;;;;;;;23.40;36.90;;;;;;1541245;76;1472;-66
2022/04/22 08:25:32;;;;;;;;;;;23.50;37.00;;;;;;1539857;75;666;-66
2022/04/22 08:27:34;;;;;;;;;;;23.50;37.10;;;;;;1530203;75;1464;-68
2022/04/22 08:29:37;;;;;;;;;;;23.50;37.10;;;;;;1530694;75;752;-66
2022/04/22 08:31:39;;;;;;;;;;;23.50;37.00;;;;;;1544100;77;766;-65
2022/04/22 08:33:45;;;;;;;;;;;23.40;36.90;;;;;;1537598;76;1175;-66
2022/04/22 08:35:45;;;;;;;;;;;23.40;36.90;;;;;;1534023;77;1548;-65
2022/04/22 08:37:46;;;;;;;;;;;23.50;37.10;;;;;;1531385;77;1953;-68
2022/04/22 08:39:48;;;;;;;;;;;23.40;36.80;;;;;;1534000;77;678;-65
2022/04/22 08:41:50;;;;;;;;;;;23.50;36.90;;;;;;1534549;76;1471;-65
2022/04/22 08:43:52;;;;;;;;;;;23.50;36.90;;;;;;1533411;75;1125;-66
2022/04/22 08:45:54;;;;;;;;;;;23.50;36.80;;;;;;1536753;77;677;-66
2022/04/22 08:50:19;;;;;;;;;;;23.50;36.80;;;;;;1532771;77;1620;-70
2022/04/22 08:52:22;;;;;;;;;;;23.40;36.60;;;;;;1534869;75;762;-67
2022/04/22 08:54:24;;;;;;;;;;;23.40;36.60;;;;;;1535802;76;1412;-70
2022/04/22 08:56:26;;;;;;;;;;;23.40;36.50;;;;;;1534325;75;729;-67
2022/04/22 08:58:28;;;;;;;;;;;23.40;36.60;;;;;;1541915;75;1940;-68
2022/04/22 09:00:30;;;;;;;;;;;23.40;36.60;;;;;;1537611;77;758;-67
2022/04/22 09:02:32;;;;;;;;;;;23.50;36.70;;;;;;1531814;77;664;-68
2022/04/22 09:04:34;;;;;;;;;;;23.40;36.50;;;;;;1534413;76;1097;-67
2022/04/22 09:06:36;;;;;;;;;;;23.50;36.70;;;;;;1536391;77;704;-70
2022/04/22 09:08:38;;;;;;;;;;;23.40;36.50;;;;;;1506742;77;1492;-69
2022/04/22 09:10:42;;;;;;;;;;;23.50;36.60;;;;;;1534114;75;772;-69
2022/04/22 09:12:45;;;;;;;;;;;23.50;36.60;;;;;;1535702;75;1539;-69
2022/04/22 09:14:49;;;;;;;;;;;23.50;36.70;;;;;;1532537;77;1133;-70
2022/04/22 09:16:51;;;;;;;;;;;23.50;36.80;;;;;;1537192;77;1931;-70
2022/04/22 09:19:00;;;;;;;;;;;23.50;36.90;;;;;;1537052;77;672;-68
2022/04/22 09:21:06;;;;;;;;;;;23.60;36.90;;;;;;1536274;75;715;-69
2022/04/22 09:23:25;;;;;;;;;;;23.50;37.00;;;;;;1516797;77;1697;-66
2022/04/22 09:25:28;;;;;;;;;;;23.50;37.10;;;;;;1485340;79;678;-65
2022/04/22 09:27:33;;;;;;;;;;;23.60;37.20;;;;;;1513416;77;671;-68
2022/04/22 09:29:42;;;;;;;;;;;23.60;37.40;;;;;;1492111;78;697;-71
2022/04/22 09:31:46;;;;;;;;;;;23.60;37.40;;;;;;1516879;78;688;-69
2022/04/22 09:33:50;;;;;;;;;;;23.70;37.50;;;;;;1511448;78;1164;-68
2022/04/22 09:42:39;;;;;;;;;;;23.90;37.00;;;;;;1520472;77;1641;-66
2022/04/22 09:44:41;;;;;;;;;;;23.90;37.00;;;;;;1514704;78;668;-68
2022/04/22 09:46:43;;;;;;;;;;;23.80;36.80;;;;;;1503703;77;673;-64
2022/04/22 09:48:45;;;;;;;;;;;23.90;36.90;;;;;;1502435;77;693;-65
2022/04/22 09:50:52;;;;;;;;;;;23.90;36.10;;;;;;1499651;77;1451;-65
2022/04/22 09:52:54;;;;;;;;;;;23.90;36.00;;;;;;1508897;76;1143;-63
2022/04/22 09:54:57;;;;;;;;;;;23.90;36.10;;;;;;1481921;80;1189;-68
2022/04/22 09:57:00;;;;;;;;;;;24.00;36.00;;;;;;1520440;76;1932;-65
2022/04/22 09:59:04;;;;;;;;;;;24.00;36.10;;;;;;1514662;76;661;-65
2022/04/22 10:01:06;;;;;;;;;;;24.00;36.10;;;;;;1512925;77;1936;-65
2022/04/22 10:03:09;;;;;;;;;;;23.90;36.10;;;;;;1514913;76;1167;-65
2022/04/22 10:05:11;;;;;;;;;;;24.00;36.00;;;;;;1513247;77;1457;-65
2022/04/22 10:07:13;;;;;;;;;;;24.00;36.00;;;;;;1515916;77;704;-66
2022/04/22 10:09:15;;;;;;;;;;;24.00;36.00;;;;;;1514716;76;763;-67
2022/04/22 10:11:17;;;;;;;;;;;24.00;36.00;;;;;;1514854;77;775;-66
2022/04/22 10:13:21;;;;;;;;;;;24.00;36.00;;;;;;1514639;77;1154;-65
2022/04/22 10:15:24;;;;;;;;;;;24.00;35.90;;;;;;1516647;78;779;-64
2022/04/22 10:17:26;;;;;;;;;;;24.00;36.00;;;;;;1514922;76;1942;-65
2022/04/22 10:19:28;;;;;;;;;;;24.00;35.90;;;;;;1514036;76;1498;-65
2022/04/22 10:21:30;;;;;;;;;;;24.00;35.90;;;;;;1519607;76;691;-65
2022/04/22 10:23:32;;;;;;;;;;;24.00;35.90;;;;;;1487494;78;1140;-68
2022/04/22 10:25:34;;;;;;;;;;;24.00;35.90;;;;;;1505805;77;762;-65
2022/04/22 10:27:37;;;;;;;;;;;24.00;35.90;;;;;;1513311;77;720;-67
2022/04/22 10:29:40;;;;;;;;;;;24.00;35.80;;;;;;1509706;78;682;-65
2022/04/22 10:31:42;;;;;;;;;;;24.00;35.80;;;;;;1477944;78;690;-64
2022/04/22 10:33:44;;;;;;;;;;;24.10;35.90;;;;;;1483673;78;1468;-64
2022/04/22 10:35:47;;;;;;;;;;;24.10;35.90;;;;;;1514240;77;701;-64
2022/04/22 10:37:49;;;;;;;;;;;24.00;35.80;;;;;;1501416;78;1913;-64
2022/04/22 10:39:52;;;;;;;;;;;24.00;35.80;;;;;;1516087;78;701;-64
2022/04/22 10:41:54;;;;;;;;;;;24.00;35.80;;;;;;1527361;76;1076;-65
2022/04/22 10:48:39;;;;;;;;;;;24.00;35.70;;;;;;1514875;77;1448;-66
2022/04/22 10:50:41;;;;;;;;;;;24.00;35.70;;;;;;1514589;76;1585;-64
2022/04/22 10:52:45;;;;;;;;;;;24.00;35.80;;;;;;1523667;76;1125;-64
2022/04/22 10:54:55;;;;;;;;;;;24.10;36.00;;;;;;1507846;78;1041;-64
2022/04/22 10:57:05;;;;;;;;;;;24.00;35.80;;;;;;1503654;77;709;-64
2022/04/22 10:59:20;;;;;;;;;;;24.00;35.70;;;;;;1522156;76;1959;-67
2022/04/22 11:01:31;;;;;;;;;;;24.00;35.80;;;;;;1488867;79;1448;-64
2022/04/22 11:03:37;;;;;;;;;;;24.00;35.80;;;;;;1514099;77;1181;-65
2022/04/22 11:05:39;;;;;;;;;;;24.00;35.80;;;;;;1509693;78;890;-64
2022/04/22 11:07:55;;;;;;;;;;;24.00;35.80;;;;;;1509638;78;638;-62
2022/04/22 11:09:58;;;;;;;;;;;24.00;35.80;;;;;;1516469;77;645;-62
2022/04/22 11:12:00;;;;;;;;;;;24.00;35.70;;;;;;1518533;78;1829;-65
2022/04/22 11:14:04;;;;;;;;;;;24.00;35.70;;;;;;1513609;77;1128;-65
2022/04/22 11:16:13;;;;;;;;;;;24.00;35.80;;;;;;1496067;77;1838;-64
2022/04/22 11:18:15;;;;;;;;;;;24.00;35.80;;;;;;1505308;77;1949;-65
2022/04/22 11:20:17;;;;;;;;;;;24.00;35.80;;;;;;1508203;77;702;-64
2022/04/22 11:22:19;;;;;;;;;;;24.00;35.80;;;;;;1507784;78;711;-64
2022/04/22 11:24:21;;;;;;;;;;;24.00;35.80;;;;;;1511790;78;1159;-65
2022/04/22 11:26:23;;;;;;;;;;;24.00;35.80;;;;;;1506301;77;677;-65
2022/04/22 11:28:25;;;;;;;;;;;24.00;35.80;;;;;;1507566;78;720;-67
2022/04/22 11:30:28;;;;;;;;;;;24.00;35.80;;;;;;1504196;77;1459;-67
2022/04/22 11:32:30;;;;;;;;;;;24.00;35.90;;;;;;1505278;77;740;-66
2022/04/22 11:34:50;;;;;;;;;;;24.00;35.80;;;;;;1512732;78;1052;-66
2022/04/22 11:36:52;;;;;;;;;;;24.00;35.80;;;;;;1500915;78;658;-65
2022/04/22 11:38:54;;;;;;;;;;;24.10;35.90;;;;;;1508208;78;1923;-66
2022/04/22 11:40:56;;;;;;;;;;;24.10;35.90;;;;;;1508307;78;695;-67
2022/04/22 11:42:59;;;;;;;;;;;24.10;35.80;;;;;;1504834;77;1549;-66
2022/04/22 11:45:01;;;;;;;;;;;24.00;35.70;;;;;;1505328;77;719;-65
2022/04/22 11:47:03;;;;;;;;;;;24.00;35.70;;;;;;1504321;77;691;-64
2022/04/22 11:49:06;;;;;;;;;;;24.10;35.70;;;;;;1510341;78;679;-65
2022/04/22 11:51:08;;;;;;;;;;;24.10;35.70;;;;;;1507863;77;613;-64
2022/04/22 11:53:26;;;;;;;;;;;24.10;35.70;;;;;;1506608;77;1127;-64
2022/04/22 11:55:28;;;;;;;;;;;24.10;35.70;;;;;;1505459;77;964;-64
2022/04/22 11:57:39;;;;;;;;;;;24.20;35.70;;;;;;1512064;77;1353;-66
2022/04/22 12:05:31;;;;;;;;;;;24.20;35.70;;;;;;1505053;78;662;-62
2022/04/22 12:06:26;;;;;;;;;;;24.10;35.50;;;;;;1504711;77;1644;-64
2022/04/22 12:08:27;;;;;;;;;;;24.20;35.50;;;;;;1510376;77;690;-62
2022/04/22 12:10:29;;;;;;;;;;;24.10;35.50;;;;;;1517492;77;694;-66
2022/04/22 12:12:34;;;;;;;;;;;24.10;35.50;;;;;;1503945;78;1532;-65
2022/04/22 12:14:36;;;;;;;;;;;24.20;35.50;;;;;;1505081;78;1119;-66
2022/04/22 12:16:43;;;;;;;;;;;24.20;35.50;;;;;;1508636;77;761;-64
2022/04/22 12:18:42;;;;;;;;;;;24.10;35.50;;;;;;1506944;77;1907;-65
2022/04/22 12:20:44;;;;;;;;;;;24.20;35.50;;;;;;1503896;77;705;-64
2022/04/22 12:22:52;;;;;;;;;;;24.20;35.40;;;;;;1509366;78;1224;-64
2022/04/22 12:25:10;;;;;;;;;;;24.20;35.40;;;;;;1509656;77;1572;-67
2022/04/22 12:27:22;;;;;;;;;;;24.10;35.50;;;;;;1505649;77;627;-65
2022/04/22 12:29:24;;;;;;;;;;;24.10;35.40;;;;;;1499577;77;740;-64
2022/04/22 12:31:26;;;;;;;;;;;24.10;35.40;;;;;;1501854;77;692;-65
2022/04/22 12:33:28;;;;;;;;;;;24.20;35.40;;;;;;1498592;78;1188;-65
2022/04/22 12:35:30;;;;;;;;;;;24.20;35.40;;;;;;1480826;78;661;-64
2022/04/22 12:37:32;;;;;;;;;;;24.20;35.40;;;;;;1483214;79;726;-64
2022/04/22 12:39:43;;;;;;;;;;;24.20;35.40;;;;;;1480873;78;1932;-69
2022/04/22 12:41:48;;;;;;;;;;;24.10;35.40;;;;;;1491120;77;673;-64
2022/04/22 12:43:51;;;;;;;;;;;24.10;35.50;;;;;;1521823;76;1258;-64
2022/04/22 12:52:55;;;;;;;;;;;24.10;35.40;;;;;;1528752;76;1139;-66
2022/04/22 12:55:12;;;;;;;;;;;24.10;35.40;;;;;;1531917;76;1596;-66
2022/04/22 12:57:11;;;;;;;;;;;24.20;35.40;;;;;;1533634;76;1520;-64
2022/04/22 12:59:12;;;;;;;;;;;24.10;35.40;;;;;;1532589;76;1945;-65
2022/04/22 13:01:18;;;;;;;;;;;24.20;35.50;;;;;;1530364;76;689;-65
2022/04/22 13:03:25;;;;;;;;;;;24.10;35.50;;;;;;1530843;76;1154;-67
2022/04/22 13:05:24;;;;;;;;;;;24.10;35.50;;;;;;1529808;76;971;-64
2022/04/22 13:07:26;;;;;;;;;;;24.20;35.50;;;;;;1530369;77;1516;-65
2022/04/22 13:09:28;;;;;;;;;;;24.10;35.50;;;;;;1533596;76;712;-64
2022/04/22 13:11:30;;;;;;;;;;;24.10;35.50;;;;;;1511818;76;684;-63
2022/04/22 13:13:33;;;;;;;;;;;24.20;35.40;;;;;;1532694;72;224690;-65
2022/04/22 13:15:35;;;;;;;;;;;24.10;35.40;;;;;;1562055;76;601;-68